sensor_id;sensor_type;location;lat;lon;timestamp;temperature;humidity
67820;DHT22;54618;52.018;5.576;2024-01-16T00:01:29;-0.40;94.20
67820;DHT22;54618;52.018;5.576;2024-01-16T00:03:55;-0.40;94.30
67820;DHT22;54618;52.018;5.576;2024-01-16T00:06:20;-0.50;94.30
67820;DHT22;54618;52.018;5.576;2024-01-16T00:08:46;-0.50;94.30
67820;DHT22;54618;52.018;5.576;2024-01-16T00:11:12;-0.60;94.30
67820;DHT22;54618;52.018;5.576;2024-01-16T00:13:37;-0.60;94.40
67820;DHT22;54618;52.018;5.576;2024-01-16T00:16:03;-0.60;94.40
67820;DHT22;54618;52.018;5.576;2024-01-16T00:18:29;-0.60;94.40
67820;DHT22;54618;52.018;5.576;2024-01-16T00:20:55;-0.60;94.40
67820;DHT22;54618;52.018;5.576;2024-01-16T00:23:24;-0.70;94.30
67820;DHT22;54618;52.018;5.576;2024-01-16T00:25:50;-0.70;94.40
67820;DHT22;54618;52.018;5.576;2024-01-16T00:28:16;-0.70;94.40
67820;DHT22;54618;52.018;5.576;2024-01-16T00:30:44;-0.70;94.30
67820;DHT22;54618;52.018;5.576;2024-01-16T00:33:10;-0.70;94.40
67820;DHT22;54618;52.018;5.576;2024-01-16T00:35:37;-0.70;94.40
67820;DHT22;54618;52.018;5.576;2024-01-16T00:38:03;-0.70;94.30
67820;DHT22;54618;52.018;5.576;2024-01-16T00:40:29;-0.70;94.50
67820;DHT22;54618;52.018;5.576;2024-01-16T00:42:54;-0.70;94.30
67820;DHT22;54618;52.018;5.576;2024-01-16T00:45:20;-0.60;94.30
67820;DHT22;54618;52.018;5.576;2024-01-16T00:47:46;-0.60;94.20
67820;DHT22;54618;52.018;5.576;2024-01-16T00:50:12;-0.60;94.20
67820;DHT22;54618;52.018;5.576;2024-01-16T00:52:38;-0.50;94.20
67820;DHT22;54618;52.018;5.576;2024-01-16T00:55:04;-0.40;95.30
67820;DHT22;54618;52.018;5.576;2024-01-16T00:57:30;-0.30;95.60
67820;DHT22;54618;52.018;5.576;2024-01-16T00:59:59;-0.20;94.80
67820;DHT22;54618;52.018;5.576;2024-01-16T01:02:24;-0.20;94.30
67820;DHT22;54618;52.018;5.576;2024-01-16T01:04:50;-0.20;94.10
67820;DHT22;54618;52.018;5.576;2024-01-16T01:07:15;-0.20;94.00
67820;DHT22;54618;52.018;5.576;2024-01-16T01:09:41;-0.20;93.90
67820;DHT22;54618;52.018;5.576;2024-01-16T01:12:07;-0.30;93.90
67820;DHT22;54618;52.018;5.576;2024-01-16T01:14:33;-0.30;93.90
67820;DHT22;54618;52.018;5.576;2024-01-16T01:16:59;-0.30;93.90
67820;DHT22;54618;52.018;5.576;2024-01-16T01:19:25;-0.20;94.10
67820;DHT22;54618;52.018;5.576;2024-01-16T01:21:50;-0.20;94.00
67820;DHT22;54618;52.018;5.576;2024-01-16T01:24:16;-0.30;93.90
67820;DHT22;54618;52.018;5.576;2024-01-16T01:26:44;-0.20;93.90
67820;DHT22;54618;52.018;5.576;2024-01-16T01:29:10;-0.20;93.90
67820;DHT22;54618;52.018;5.576;2024-01-16T01:31:36;-0.20;93.90
67820;DHT22;54618;52.018;5.576;2024-01-16T01:34:01;-0.20;93.90
67820;DHT22;54618;52.018;5.576;2024-01-16T01:36:27;-0.20;93.80
67820;DHT22;54618;52.018;5.576;2024-01-16T01:38:53;-0.30;93.80
67820;DHT22;54618;52.018;5.576;2024-01-16T01:41:19;-0.30;93.80
67820;DHT22;54618;52.018;5.576;2024-01-16T01:43:44;-0.30;93.80
67820;DHT22;54618;52.018;5.576;2024-01-16T01:46:18;-0.30;93.90
67820;DHT22;54618;52.018;5.576;2024-01-16T01:48:46;-0.30;93.90
67820;DHT22;54618;52.018;5.576;2024-01-16T01:51:14;-0.40;93.90
67820;DHT22;54618;52.018;5.576;2024-01-16T01:53:43;-0.30;93.90
67820;DHT22;54618;52.018;5.576;2024-01-16T01:56:13;-0.40;93.90
67820;DHT22;54618;52.018;5.576;2024-01-16T01:58:42;-0.40;93.90
67820;DHT22;54618;52.018;5.576;2024-01-16T02:01:09;-0.30;94.00
67820;DHT22;54618;52.018;5.576;2024-01-16T02:03:42;-0.30;93.90
67820;DHT22;54618;52.018;5.576;2024-01-16T02:06:10;-0.30;93.90
67820;DHT22;54618;52.018;5.576;2024-01-16T02:08:36;-0.30;93.90
67820;DHT22;54618;52.018;5.576;2024-01-16T02:11:01;-0.30;93.90
67820;DHT22;54618;52.018;5.576;2024-01-16T02:13:28;-0.30;93.80
67820;DHT22;54618;52.018;5.576;2024-01-16T02:15:53;-0.20;93.80
67820;DHT22;54618;52.018;5.576;2024-01-16T02:18:19;-0.20;93.80
67820;DHT22;54618;52.018;5.576;2024-01-16T02:20:45;-0.20;93.80
67820;DHT22;54618;52.018;5.576;2024-01-16T02:23:14;-0.10;93.80
67820;DHT22;54618;52.018;5.576;2024-01-16T02:25:43;-0.10;93.90
67820;DHT22;54618;52.018;5.576;2024-01-16T02:28:16;0.00;95.30
67820;DHT22;54618;52.018;5.576;2024-01-16T02:30:42;0.10;95.10
67820;DHT22;54618;52.018;5.576;2024-01-16T02:33:08;0.20;96.40
67820;DHT22;54618;52.018;5.576;2024-01-16T02:35:33;0.30;95.30
67820;DHT22;54618;52.018;5.576;2024-01-16T02:37:59;0.30;94.70
67820;DHT22;54618;52.018;5.576;2024-01-16T02:40:29;0.40;94.40
67820;DHT22;54618;52.018;5.576;2024-01-16T02:42:54;0.40;94.20
67820;DHT22;54618;52.018;5.576;2024-01-16T02:45:20;0.40;94.30
67820;DHT22;54618;52.018;5.576;2024-01-16T02:47:45;0.50;94.30
67820;DHT22;54618;52.018;5.576;2024-01-16T02:50:11;0.50;94.10
67820;DHT22;54618;52.018;5.576;2024-01-16T02:52:37;0.50;93.90
67820;DHT22;54618;52.018;5.576;2024-01-16T02:55:03;0.60;93.90
67820;DHT22;54618;52.018;5.576;2024-01-16T02:57:30;0.60;93.80
67820;DHT22;54618;52.018;5.576;2024-01-16T02:59:58;0.60;93.80
67820;DHT22;54618;52.018;5.576;2024-01-16T03:02:24;0.60;93.80
67820;DHT22;54618;52.018;5.576;2024-01-16T03:04:50;0.60;93.80
67820;DHT22;54618;52.018;5.576;2024-01-16T03:07:16;0.60;93.90
67820;DHT22;54618;52.018;5.576;2024-01-16T03:09:41;0.60;93.90
67820;DHT22;54618;52.018;5.576;2024-01-16T03:12:07;0.60;94.00
67820;DHT22;54618;52.018;5.576;2024-01-16T03:14:33;0.60;94.00
67820;DHT22;54618;52.018;5.576;2024-01-16T03:17:02;0.60;94.00
67820;DHT22;54618;52.018;5.576;2024-01-16T03:19:28;0.60;94.10
67820;DHT22;54618;52.018;5.576;2024-01-16T03:21:54;0.60;94.10
67820;DHT22;54618;52.018;5.576;2024-01-16T03:24:20;0.60;94.10
67820;DHT22;54618;52.018;5.576;2024-01-16T03:26:45;0.60;94.10
67820;DHT22;54618;52.018;5.576;2024-01-16T03:29:11;0.60;94.20
67820;DHT22;54618;52.018;5.576;2024-01-16T03:31:37;0.60;94.20
67820;DHT22;54618;52.018;5.576;2024-01-16T03:34:03;0.60;94.20
67820;DHT22;54618;52.018;5.576;2024-01-16T03:36:28;0.60;94.30
67820;DHT22;54618;52.018;5.576;2024-01-16T03:38:54;0.60;94.30
67820;DHT22;54618;52.018;5.576;2024-01-16T03:41:20;0.60;94.40
67820;DHT22;54618;52.018;5.576;2024-01-16T03:43:45;0.70;94.40
67820;DHT22;54618;52.018;5.576;2024-01-16T03:46:11;0.70;94.60
67820;DHT22;54618;52.018;5.576;2024-01-16T03:48:37;0.70;94.50
67820;DHT22;54618;52.018;5.576;2024-01-16T03:51:02;0.70;94.50
67820;DHT22;54618;52.018;5.576;2024-01-16T03:53:28;0.70;94.50
67820;DHT22;54618;52.018;5.576;2024-01-16T03:55:54;0.70;94.40
67820;DHT22;54618;52.018;5.576;2024-01-16T03:58:19;0.70;94.50
67820;DHT22;54618;52.018;5.576;2024-01-16T04:00:45;0.80;94.50
67820;DHT22;54618;52.018;5.576;2024-01-16T04:03:11;0.80;94.50
67820;DHT22;54618;52.018;5.576;2024-01-16T04:05:38;0.80;94.50
67820;DHT22;54618;52.018;5.576;2024-01-16T04:08:04;0.80;94.50
67820;DHT22;54618;52.018;5.576;2024-01-16T04:10:30;0.80;94.50
67820;DHT22;54618;52.018;5.576;2024-01-16T04:12:55;0.70;94.50
67820;DHT22;54618;52.018;5.576;2024-01-16T04:15:21;0.70;94.50
67820;DHT22;54618;52.018;5.576;2024-01-16T04:17:47;0.70;94.50
67820;DHT22;54618;52.018;5.576;2024-01-16T04:20:13;0.60;94.60
67820;DHT22;54618;52.018;5.576;2024-01-16T04:22:40;0.60;94.60
67820;DHT22;54618;52.018;5.576;2024-01-16T04:25:06;0.60;94.60
67820;DHT22;54618;52.018;5.576;2024-01-16T04:27:32;0.50;94.60
67820;DHT22;54618;52.018;5.576;2024-01-16T04:29:58;0.50;94.70
67820;DHT22;54618;52.018;5.576;2024-01-16T04:32:23;0.40;94.70
67820;DHT22;54618;52.018;5.576;2024-01-16T04:34:49;0.50;94.70
67820;DHT22;54618;52.018;5.576;2024-01-16T04:37:15;0.40;94.80
67820;DHT22;54618;52.018;5.576;2024-01-16T04:39:41;0.40;95.00
67820;DHT22;54618;52.018;5.576;2024-01-16T04:42:06;0.40;94.80
67820;DHT22;54618;52.018;5.576;2024-01-16T04:44:32;0.40;94.80
67820;DHT22;54618;52.018;5.576;2024-01-16T04:46:58;0.40;94.90
67820;DHT22;54618;52.018;5.576;2024-01-16T04:49:23;0.40;94.90
67820;DHT22;54618;52.018;5.576;2024-01-16T04:51:49;0.50;94.90
67820;DHT22;54618;52.018;5.576;2024-01-16T04:54:16;0.50;94.80
67820;DHT22;54618;52.018;5.576;2024-01-16T04:56:41;0.50;94.80
67820;DHT22;54618;52.018;5.576;2024-01-16T04:59:07;0.50;94.80
67820;DHT22;54618;52.018;5.576;2024-01-16T05:01:32;0.60;94.80
67820;DHT22;54618;52.018;5.576;2024-01-16T05:03:58;0.60;94.70
67820;DHT22;54618;52.018;5.576;2024-01-16T05:06:24;0.60;94.70
67820;DHT22;54618;52.018;5.576;2024-01-16T05:08:49;0.60;94.70
67820;DHT22;54618;52.018;5.576;2024-01-16T05:11:15;0.60;94.80
67820;DHT22;54618;52.018;5.576;2024-01-16T05:13:41;0.60;94.80
67820;DHT22;54618;52.018;5.576;2024-01-16T05:16:06;0.60;94.80
67820;DHT22;54618;52.018;5.576;2024-01-16T05:18:33;0.60;94.80
67820;DHT22;54618;52.018;5.576;2024-01-16T05:20:59;0.60;94.80
67820;DHT22;54618;52.018;5.576;2024-01-16T05:23:24;0.60;94.80
67820;DHT22;54618;52.018;5.576;2024-01-16T05:25:50;0.60;94.90
67820;DHT22;54618;52.018;5.576;2024-01-16T05:28:16;0.50;94.90
67820;DHT22;54618;52.018;5.576;2024-01-16T05:30:41;0.50;94.70
67820;DHT22;54618;52.018;5.576;2024-01-16T05:33:08;0.50;94.70
67820;DHT22;54618;52.018;5.576;2024-01-16T05:35:34;0.50;94.70
67820;DHT22;54618;52.018;5.576;2024-01-16T05:37:59;0.50;94.80
67820;DHT22;54618;52.018;5.576;2024-01-16T05:40:25;0.50;94.70
67820;DHT22;54618;52.018;5.576;2024-01-16T05:42:51;0.50;94.70
67820;DHT22;54618;52.018;5.576;2024-01-16T05:45:17;0.60;95.00
67820;DHT22;54618;52.018;5.576;2024-01-16T05:47:43;0.60;94.70
67820;DHT22;54618;52.018;5.576;2024-01-16T05:50:09;0.60;94.80
67820;DHT22;54618;52.018;5.576;2024-01-16T05:52:35;0.60;94.70
67820;DHT22;54618;52.018;5.576;2024-01-16T05:55:01;0.60;94.70
67820;DHT22;54618;52.018;5.576;2024-01-16T05:57:31;0.70;94.80
67820;DHT22;54618;52.018;5.576;2024-01-16T05:59:59;0.70;94.70
67820;DHT22;54618;52.018;5.576;2024-01-16T06:02:24;0.70;94.70
67820;DHT22;54618;52.018;5.576;2024-01-16T06:04:50;0.70;94.70
67820;DHT22;54618;52.018;5.576;2024-01-16T06:07:16;0.70;94.70
67820;DHT22;54618;52.018;5.576;2024-01-16T06:09:41;0.70;94.60
67820;DHT22;54618;52.018;5.576;2024-01-16T06:12:07;0.70;94.70
67820;DHT22;54618;52.018;5.576;2024-01-16T06:14:33;0.80;94.70
67820;DHT22;54618;52.018;5.576;2024-01-16T06:17:00;0.80;94.60
67820;DHT22;54618;52.018;5.576;2024-01-16T06:19:29;0.80;94.70
67820;DHT22;54618;52.018;5.576;2024-01-16T06:21:54;0.80;94.70
67820;DHT22;54618;52.018;5.576;2024-01-16T06:24:20;0.80;94.70
67820;DHT22;54618;52.018;5.576;2024-01-16T06:26:45;0.90;94.70
67820;DHT22;54618;52.018;5.576;2024-01-16T06:29:11;0.90;94.70
67820;DHT22;54618;52.018;5.576;2024-01-16T06:31:36;0.90;94.70
67820;DHT22;54618;52.018;5.576;2024-01-16T06:34:03;1.00;94.70
67820;DHT22;54618;52.018;5.576;2024-01-16T06:36:29;0.90;94.60
67820;DHT22;54618;52.018;5.576;2024-01-16T06:38:55;0.90;94.70
67820;DHT22;54618;52.018;5.576;2024-01-16T06:41:20;1.00;94.80
67820;DHT22;54618;52.018;5.576;2024-01-16T06:43:46;0.90;94.80
67820;DHT22;54618;52.018;5.576;2024-01-16T06:46:12;1.00;94.80
67820;DHT22;54618;52.018;5.576;2024-01-16T06:48:37;1.00;94.80
67820;DHT22;54618;52.018;5.576;2024-01-16T06:51:04;1.00;94.70
67820;DHT22;54618;52.018;5.576;2024-01-16T06:53:29;1.00;94.80
67820;DHT22;54618;52.018;5.576;2024-01-16T06:55:55;1.00;95.00
67820;DHT22;54618;52.018;5.576;2024-01-16T06:58:21;1.10;94.90
67820;DHT22;54618;52.018;5.576;2024-01-16T07:00:47;1.00;94.80
67820;DHT22;54618;52.018;5.576;2024-01-16T07:03:13;1.00;94.90
67820;DHT22;54618;52.018;5.576;2024-01-16T07:05:39;1.10;94.90
67820;DHT22;54618;52.018;5.576;2024-01-16T07:08:06;1.00;94.90
67820;DHT22;54618;52.018;5.576;2024-01-16T07:10:32;1.10;95.00
67820;DHT22;54618;52.018;5.576;2024-01-16T07:12:58;1.10;95.00
67820;DHT22;54618;52.018;5.576;2024-01-16T07:15:24;1.10;95.00
67820;DHT22;54618;52.018;5.576;2024-01-16T07:17:49;1.10;95.00
67820;DHT22;54618;52.018;5.576;2024-01-16T07:20:15;1.10;95.00
67820;DHT22;54618;52.018;5.576;2024-01-16T07:22:40;1.10;95.00
67820;DHT22;54618;52.018;5.576;2024-01-16T07:25:07;1.10;95.00
67820;DHT22;54618;52.018;5.576;2024-01-16T07:27:33;1.10;95.00
67820;DHT22;54618;52.018;5.576;2024-01-16T07:29:58;1.10;95.10
67820;DHT22;54618;52.018;5.576;2024-01-16T07:32:24;1.10;95.10
67820;DHT22;54618;52.018;5.576;2024-01-16T07:34:49;1.10;95.10
67820;DHT22;54618;52.018;5.576;2024-01-16T07:37:16;1.10;95.10
67820;DHT22;54618;52.018;5.576;2024-01-16T07:39:43;1.10;95.10
67820;DHT22;54618;52.018;5.576;2024-01-16T07:42:08;1.00;95.20
67820;DHT22;54618;52.018;5.576;2024-01-16T07:44:34;1.00;95.20
67820;DHT22;54618;52.018;5.576;2024-01-16T07:47:00;1.10;95.20
67820;DHT22;54618;52.018;5.576;2024-01-16T07:49:25;1.00;95.50
67820;DHT22;54618;52.018;5.576;2024-01-16T07:51:52;1.10;95.50
67820;DHT22;54618;52.018;5.576;2024-01-16T07:54:17;1.10;95.30
67820;DHT22;54618;52.018;5.576;2024-01-16T07:56:43;1.00;95.30
67820;DHT22;54618;52.018;5.576;2024-01-16T07:59:08;1.10;95.30
67820;DHT22;54618;52.018;5.576;2024-01-16T08:01:34;1.00;95.30
67820;DHT22;54618;52.018;5.576;2024-01-16T08:03:59;1.00;95.30
67820;DHT22;54618;52.018;5.576;2024-01-16T08:06:29;1.00;95.30
67820;DHT22;54618;52.018;5.576;2024-01-16T08:08:55;1.00;95.30
67820;DHT22;54618;52.018;5.576;2024-01-16T08:11:21;1.10;95.30
67820;DHT22;54618;52.018;5.576;2024-01-16T08:13:47;1.00;95.30
67820;DHT22;54618;52.018;5.576;2024-01-16T08:16:12;1.00;95.30
67820;DHT22;54618;52.018;5.576;2024-01-16T08:18:38;1.00;95.30
67820;DHT22;54618;52.018;5.576;2024-01-16T08:21:03;1.00;95.30
67820;DHT22;54618;52.018;5.576;2024-01-16T08:23:29;1.00;95.30
67820;DHT22;54618;52.018;5.576;2024-01-16T08:25:55;1.00;95.30
67820;DHT22;54618;52.018;5.576;2024-01-16T08:28:21;1.10;95.50
67820;DHT22;54618;52.018;5.576;2024-01-16T08:30:49;1.10;95.30
67820;DHT22;54618;52.018;5.576;2024-01-16T08:33:15;1.10;95.20
67820;DHT22;54618;52.018;5.576;2024-01-16T08:35:40;1.10;95.20
67820;DHT22;54618;52.018;5.576;2024-01-16T08:38:06;1.20;95.20
67820;DHT22;54618;52.018;5.576;2024-01-16T08:40:31;1.20;95.20
67820;DHT22;54618;52.018;5.576;2024-01-16T08:42:57;1.20;95.20
67820;DHT22;54618;52.018;5.576;2024-01-16T08:45:23;1.20;95.10
67820;DHT22;54618;52.018;5.576;2024-01-16T08:47:51;1.20;95.10
67820;DHT22;54618;52.018;5.576;2024-01-16T08:50:16;1.20;95.00
67820;DHT22;54618;52.018;5.576;2024-01-16T08:52:42;1.20;95.00
67820;DHT22;54618;52.018;5.576;2024-01-16T08:55:08;1.20;95.00
67820;DHT22;54618;52.018;5.576;2024-01-16T08:57:36;1.30;95.00
67820;DHT22;54618;52.018;5.576;2024-01-16T09:00:06;1.30;95.20
67820;DHT22;54618;52.018;5.576;2024-01-16T09:02:37;1.30;95.00
67820;DHT22;54618;52.018;5.576;2024-01-16T09:05:02;1.30;94.90
67820;DHT22;54618;52.018;5.576;2024-01-16T09:07:28;1.30;94.90
67820;DHT22;54618;52.018;5.576;2024-01-16T09:09:54;1.30;94.80
67820;DHT22;54618;52.018;5.576;2024-01-16T09:12:20;1.40;95.00
67820;DHT22;54618;52.018;5.576;2024-01-16T09:14:46;1.40;94.80
67820;DHT22;54618;52.018;5.576;2024-01-16T09:17:11;1.50;94.70
67820;DHT22;54618;52.018;5.576;2024-01-16T09:19:37;1.50;94.60
67820;DHT22;54618;52.018;5.576;2024-01-16T09:22:03;1.60;94.60
67820;DHT22;54618;52.018;5.576;2024-01-16T09:24:29;1.60;94.70
67820;DHT22;54618;52.018;5.576;2024-01-16T09:26:55;1.70;94.40
67820;DHT22;54618;52.018;5.576;2024-01-16T09:29:20;1.70;94.30
67820;DHT22;54618;52.018;5.576;2024-01-16T09:31:48;1.70;94.20
67820;DHT22;54618;52.018;5.576;2024-01-16T09:34:13;1.70;94.30
67820;DHT22;54618;52.018;5.576;2024-01-16T09:36:39;1.70;94.20
67820;DHT22;54618;52.018;5.576;2024-01-16T09:39:06;1.70;94.20
67820;DHT22;54618;52.018;5.576;2024-01-16T09:41:39;1.70;94.10
67820;DHT22;54618;52.018;5.576;2024-01-16T09:44:05;1.70;94.10
67820;DHT22;54618;52.018;5.576;2024-01-16T09:46:33;1.70;94.10
67820;DHT22;54618;52.018;5.576;2024-01-16T09:49:00;1.70;94.10
67820;DHT22;54618;52.018;5.576;2024-01-16T09:51:30;1.70;94.10
67820;DHT22;54618;52.018;5.576;2024-01-16T09:53:59;1.60;94.00
67820;DHT22;54618;52.018;5.576;2024-01-16T09:56:25;1.60;94.20
67820;DHT22;54618;52.018;5.576;2024-01-16T09:58:56;1.70;94.30
67820;DHT22;54618;52.018;5.576;2024-01-16T10:01:26;1.70;94.30
67820;DHT22;54618;52.018;5.576;2024-01-16T10:03:55;1.80;94.20
67820;DHT22;54618;52.018;5.576;2024-01-16T10:06:23;1.80;94.10
67820;DHT22;54618;52.018;5.576;2024-01-16T10:08:49;1.70;94.30
67820;DHT22;54618;52.018;5.576;2024-01-16T10:11:15;1.70;94.10
67820;DHT22;54618;52.018;5.576;2024-01-16T10:13:40;1.60;94.00
67820;DHT22;54618;52.018;5.576;2024-01-16T10:16:06;1.70;94.10
67820;DHT22;54618;52.018;5.576;2024-01-16T10:18:33;1.60;94.10
67820;DHT22;54618;52.018;5.576;2024-01-16T10:20:59;1.70;94.20
67820;DHT22;54618;52.018;5.576;2024-01-16T10:23:29;1.70;94.20
67820;DHT22;54618;52.018;5.576;2024-01-16T10:26:06;1.80;94.20
67820;DHT22;54618;52.018;5.576;2024-01-16T10:28:33;1.90;94.10
67820;DHT22;54618;52.018;5.576;2024-01-16T10:31:06;1.90;94.00
67820;DHT22;54618;52.018;5.576;2024-01-16T10:33:32;1.90;93.90
67820;DHT22;54618;52.018;5.576;2024-01-16T10:36:16;2.00;93.90
67820;DHT22;54618;52.018;5.576;2024-01-16T10:38:45;2.20;93.70
67820;DHT22;54618;52.018;5.576;2024-01-16T10:41:17;2.20;93.60
67820;DHT22;54618;52.018;5.576;2024-01-16T10:43:43;2.30;93.40
67820;DHT22;54618;52.018;5.576;2024-01-16T10:46:14;2.50;93.40
67820;DHT22;54618;52.018;5.576;2024-01-16T10:48:42;2.60;93.20
67820;DHT22;54618;52.018;5.576;2024-01-16T10:51:08;2.70;93.00
67820;DHT22;54618;52.018;5.576;2024-01-16T10:53:37;2.80;93.00
67820;DHT22;54618;52.018;5.576;2024-01-16T10:56:07;2.80;92.50
67820;DHT22;54618;52.018;5.576;2024-01-16T10:58:36;2.90;92.60
67820;DHT22;54618;52.018;5.576;2024-01-16T11:01:05;2.90;92.40
67820;DHT22;54618;52.018;5.576;2024-01-16T11:06:09;3.10;92.50
67820;DHT22;54618;52.018;5.576;2024-01-16T11:08:37;3.20;92.40
67820;DHT22;54618;52.018;5.576;2024-01-16T11:11:04;3.30;92.20
67820;DHT22;54618;52.018;5.576;2024-01-16T11:13:32;3.50;92.10
67820;DHT22;54618;52.018;5.576;2024-01-16T11:15:59;3.60;92.00
67820;DHT22;54618;52.018;5.576;2024-01-16T11:18:27;3.60;91.70
67820;DHT22;54618;52.018;5.576;2024-01-16T11:20:59;3.70;91.90
67820;DHT22;54618;52.018;5.576;2024-01-16T11:23:25;3.70;92.00
67820;DHT22;54618;52.018;5.576;2024-01-16T11:25:51;3.80;91.70
67820;DHT22;54618;52.018;5.576;2024-01-16T11:28:17;3.90;91.80
67820;DHT22;54618;52.018;5.576;2024-01-16T11:30:44;3.80;91.60
67820;DHT22;54618;52.018;5.576;2024-01-16T11:35:58;3.80;91.70
67820;DHT22;54618;52.018;5.576;2024-01-16T11:38:25;3.80;91.30
67820;DHT22;54618;52.018;5.576;2024-01-16T11:40:55;3.70;92.10
67820;DHT22;54618;52.018;5.576;2024-01-16T11:43:34;3.80;92.10
67820;DHT22;54618;52.018;5.576;2024-01-16T11:46:01;3.80;92.20
67820;DHT22;54618;52.018;5.576;2024-01-16T11:48:30;3.90;92.30
67820;DHT22;54618;52.018;5.576;2024-01-16T11:50:55;3.90;92.40
67820;DHT22;54618;52.018;5.576;2024-01-16T12:01:41;4.00;91.90
67820;DHT22;54618;52.018;5.576;2024-01-16T12:04:09;4.00;92.10
67820;DHT22;54618;52.018;5.576;2024-01-16T12:06:35;4.00;92.20
67820;DHT22;54618;52.018;5.576;2024-01-16T12:09:14;4.00;92.40
67820;DHT22;54618;52.018;5.576;2024-01-16T12:11:40;4.00;92.40
67820;DHT22;54618;52.018;5.576;2024-01-16T12:14:09;4.10;92.30
67820;DHT22;54618;52.018;5.576;2024-01-16T12:16:34;4.20;92.50
67820;DHT22;54618;52.018;5.576;2024-01-16T12:19:10;4.30;92.40
67820;DHT22;54618;52.018;5.576;2024-01-16T12:21:43;4.30;91.50
67820;DHT22;54618;52.018;5.576;2024-01-16T12:24:10;4.40;92.00
67820;DHT22;54618;52.018;5.576;2024-01-16T12:26:37;4.60;92.30
67820;DHT22;54618;52.018;5.576;2024-01-16T12:29:02;4.60;92.30
67820;DHT22;54618;52.018;5.576;2024-01-16T12:31:28;4.80;92.20
67820;DHT22;54618;52.018;5.576;2024-01-16T12:34:07;4.80;91.90
67820;DHT22;54618;52.018;5.576;2024-01-16T12:36:34;4.80;91.20
67820;DHT22;54618;52.018;5.576;2024-01-16T12:39:00;4.80;91.60
67820;DHT22;54618;52.018;5.576;2024-01-16T12:41:30;4.70;90.10
67820;DHT22;54618;52.018;5.576;2024-01-16T12:44:01;4.50;91.70
67820;DHT22;54618;52.018;5.576;2024-01-16T12:46:30;4.30;92.40
67820;DHT22;54618;52.018;5.576;2024-01-16T12:49:03;4.20;92.70
67820;DHT22;54618;52.018;5.576;2024-01-16T12:51:31;4.10;93.10
67820;DHT22;54618;52.018;5.576;2024-01-16T12:54:18;4.00;93.20
67820;DHT22;54618;52.018;5.576;2024-01-16T12:56:44;4.00;93.30
67820;DHT22;54618;52.018;5.576;2024-01-16T12:59:11;4.10;93.60
67820;DHT22;54618;52.018;5.576;2024-01-16T13:01:43;4.10;93.50
67820;DHT22;54618;52.018;5.576;2024-01-16T13:04:10;4.20;93.30
67820;DHT22;54618;52.018;5.576;2024-01-16T13:06:36;4.20;93.20
67820;DHT22;54618;52.018;5.576;2024-01-16T13:09:10;4.30;93.50
67820;DHT22;54618;52.018;5.576;2024-01-16T13:11:53;4.40;93.30
67820;DHT22;54618;52.018;5.576;2024-01-16T13:14:21;4.30;93.00
67820;DHT22;54618;52.018;5.576;2024-01-16T13:16:48;4.40;93.40
67820;DHT22;54618;52.018;5.576;2024-01-16T13:19:17;4.40;93.30
67820;DHT22;54618;52.018;5.576;2024-01-16T13:21:43;4.40;92.70
67820;DHT22;54618;52.018;5.576;2024-01-16T13:24:08;4.40;93.00
67820;DHT22;54618;52.018;5.576;2024-01-16T13:26:34;4.40;93.20
67820;DHT22;54618;52.018;5.576;2024-01-16T13:29:00;4.40;93.00
67820;DHT22;54618;52.018;5.576;2024-01-16T13:31:26;4.50;93.10
67820;DHT22;54618;52.018;5.576;2024-01-16T13:33:51;4.60;92.60
67820;DHT22;54618;52.018;5.576;2024-01-16T13:36:17;4.60;93.00
67820;DHT22;54618;52.018;5.576;2024-01-16T13:38:43;4.60;92.90
67820;DHT22;54618;52.018;5.576;2024-01-16T13:41:08;4.60;92.90
67820;DHT22;54618;52.018;5.576;2024-01-16T13:43:34;4.50;92.70
67820;DHT22;54618;52.018;5.576;2024-01-16T13:45:59;4.40;92.80
67820;DHT22;54618;52.018;5.576;2024-01-16T13:48:25;4.40;93.20
67820;DHT22;54618;52.018;5.576;2024-01-16T13:50:51;4.40;93.20
67820;DHT22;54618;52.018;5.576;2024-01-16T13:53:16;4.40;93.00
67820;DHT22;54618;52.018;5.576;2024-01-16T13:55:42;4.30;92.20
67820;DHT22;54618;52.018;5.576;2024-01-16T13:58:08;4.30;92.50
67820;DHT22;54618;52.018;5.576;2024-01-16T14:00:34;4.30;91.50
67820;DHT22;54618;52.018;5.576;2024-01-16T14:03:00;4.20;92.20
67820;DHT22;54618;52.018;5.576;2024-01-16T14:05:31;4.10;92.40
67820;DHT22;54618;52.018;5.576;2024-01-16T14:07:58;4.00;92.70
67820;DHT22;54618;52.018;5.576;2024-01-16T14:10:24;3.90;92.80
67820;DHT22;54618;52.018;5.576;2024-01-16T14:12:51;3.70;92.30
67820;DHT22;54618;52.018;5.576;2024-01-16T14:15:19;3.70;92.50
67820;DHT22;54618;52.018;5.576;2024-01-16T14:17:49;3.60;92.80
67820;DHT22;54618;52.018;5.576;2024-01-16T14:20:15;3.50;92.80
67820;DHT22;54618;52.018;5.576;2024-01-16T14:22:41;3.50;93.00
67820;DHT22;54618;52.018;5.576;2024-01-16T14:25:08;3.50;92.70
67820;DHT22;54618;52.018;5.576;2024-01-16T14:27:42;3.40;92.70
67820;DHT22;54618;52.018;5.576;2024-01-16T14:30:12;3.40;92.80
67820;DHT22;54618;52.018;5.576;2024-01-16T14:32:43;3.70;92.30
67820;DHT22;54618;52.018;5.576;2024-01-16T14:35:09;3.70;91.90
67820;DHT22;54618;52.018;5.576;2024-01-16T14:37:36;3.60;91.90
67820;DHT22;54618;52.018;5.576;2024-01-16T14:40:03;3.50;92.00
67820;DHT22;54618;52.018;5.576;2024-01-16T14:42:54;3.40;92.10
67820;DHT22;54618;52.018;5.576;2024-01-16T14:45:23;3.30;92.20
67820;DHT22;54618;52.018;5.576;2024-01-16T14:47:50;3.20;92.30
67820;DHT22;54618;52.018;5.576;2024-01-16T14:50:17;3.20;92.40
67820;DHT22;54618;52.018;5.576;2024-01-16T14:52:44;3.10;92.30
67820;DHT22;54618;52.018;5.576;2024-01-16T14:55:10;3.00;92.30
67820;DHT22;54618;52.018;5.576;2024-01-16T14:57:38;2.90;92.30
67820;DHT22;54618;52.018;5.576;2024-01-16T15:00:17;2.90;92.30
67820;DHT22;54618;52.018;5.576;2024-01-16T15:02:49;2.80;92.20
67820;DHT22;54618;52.018;5.576;2024-01-16T15:05:15;2.80;92.40
67820;DHT22;54618;52.018;5.576;2024-01-16T15:07:41;2.70;92.40
67820;DHT22;54618;52.018;5.576;2024-01-16T15:10:09;2.70;92.20
67820;DHT22;54618;52.018;5.576;2024-01-16T15:12:39;2.70;92.10
67820;DHT22;54618;52.018;5.576;2024-01-16T15:15:06;2.80;92.20
67820;DHT22;54618;52.018;5.576;2024-01-16T15:17:32;3.00;91.80
67820;DHT22;54618;52.018;5.576;2024-01-16T15:20:02;3.00;91.60
67820;DHT22;54618;52.018;5.576;2024-01-16T15:22:29;2.90;91.50
67820;DHT22;54618;52.018;5.576;2024-01-16T15:25:00;2.70;91.50
67820;DHT22;54618;52.018;5.576;2024-01-16T15:27:26;2.60;91.60
67820;DHT22;54618;52.018;5.576;2024-01-16T15:29:52;2.40;91.60
67820;DHT22;54618;52.018;5.576;2024-01-16T15:32:20;2.30;92.00
67820;DHT22;54618;52.018;5.576;2024-01-16T15:34:46;2.20;91.50
67820;DHT22;54618;52.018;5.576;2024-01-16T15:37:12;2.10;92.00
67820;DHT22;54618;52.018;5.576;2024-01-16T15:39:38;2.00;92.00
67820;DHT22;54618;52.018;5.576;2024-01-16T15:42:04;1.90;92.30
67820;DHT22;54618;52.018;5.576;2024-01-16T15:44:29;1.90;92.40
67820;DHT22;54618;52.018;5.576;2024-01-16T15:47:01;1.80;92.40
67820;DHT22;54618;52.018;5.576;2024-01-16T15:49:30;1.70;92.40
67820;DHT22;54618;52.018;5.576;2024-01-16T15:51:59;1.60;92.50
67820;DHT22;54618;52.018;5.576;2024-01-16T15:54:25;1.60;92.50
67820;DHT22;54618;52.018;5.576;2024-01-16T15:56:52;1.50;92.50